Terminal Aerodrome Forecast
Issued by NWS

Home | Current Version | Previous Version | Text Only | Print | Product List | Glossary On
Versions: 1 2 3 4 5 6 7 8 9 10 11 12 13 14 15
000
FTUS44 KOUN 311742
TAFCSM
TAF
KCSM 311742Z 3118/0118 02006KT P6SM BKN080
      TEMPO 3119/3123 4SM -TSRA OVC040CB
     FM010700 03008KT P6SM OVC020 PROB30 0107/0113 3SM -TSRA
      OVC020CB=

USA.gov is the U.S. government's official web portal to all federal, state and local government web resources and services.